createdAt,value
2022-12-18T00:02:35.363Z,62.70
2022-12-18T00:05:23.870Z,55.70
2022-12-18T00:08:12.207Z,54.20
2022-12-18T00:11:07.037Z,63.30
2022-12-18T00:13:59.253Z,62.97
2022-12-18T00:16:48.879Z,69.13
2022-12-18T00:19:37.195Z,84.53
2022-12-18T00:22:25.578Z,75.53
2022-12-18T00:25:13.875Z,73.43
2022-12-18T00:28:02.236Z,62.93
2022-12-18T00:30:52.546Z,75.13
2022-12-18T00:33:41.235Z,63.55
2022-12-18T00:36:31.776Z,67.70
2022-12-18T00:39:20.069Z,54.95
2022-12-18T00:42:27.513Z,58.07
2022-12-18T00:45:15.812Z,60.53
2022-12-18T00:48:06.063Z,58.93
2022-12-18T00:50:54.454Z,41.10
2022-12-18T00:53:42.800Z,55.53
2022-12-18T00:56:31.203Z,61.07
2022-12-18T00:59:20.376Z,67.13
2022-12-18T01:02:08.835Z,61.67
2022-12-18T01:04:58.625Z,60.27
2022-12-18T01:07:46.997Z,58.90
2022-12-18T01:10:35.358Z,62.83
2022-12-18T01:13:23.720Z,56.60
2022-12-18T01:16:14.764Z,67.70
2022-12-18T01:19:03.119Z,55.25
2022-12-18T01:21:52.794Z,60.60
2022-12-18T01:24:41.225Z,62.57
2022-12-18T01:27:32.708Z,54.00
2022-12-18T01:30:23.762Z,61.33
2022-12-18T01:33:12.104Z,77.18
2022-12-18T01:36:00.431Z,68.63
2022-12-18T01:38:50.865Z,63.27
2022-12-18T01:41:57.046Z,65.18
2022-12-18T01:45:05.492Z,61.53
2022-12-18T01:47:56.268Z,66.27
2022-12-18T01:50:45.375Z,71.55
2022-12-18T01:53:33.904Z,63.07
2022-12-18T01:56:24.248Z,52.00
2022-12-18T01:59:13.852Z,65.18
2022-12-18T02:02:02.626Z,65.13
2022-12-18T02:04:51.748Z,59.77
2022-12-18T02:07:49.204Z,57.27
2022-12-18T02:10:46.503Z,69.13
2022-12-18T02:13:44.902Z,54.80
2022-12-18T02:16:41.605Z,63.47
2022-12-18T02:19:45.342Z,71.67
2022-12-18T02:22:44.110Z,60.63
2022-12-18T02:25:47.332Z,66.50
2022-12-18T02:28:41.679Z,67.90
2022-12-18T02:31:33.624Z,67.57
2022-12-18T02:34:28.806Z,69.17
2022-12-18T02:37:20.098Z,61.37
2022-12-18T02:40:10.930Z,64.17
2022-12-18T02:43:05.273Z,66.78
2022-12-18T02:46:03.607Z,60.77
2022-12-18T02:48:54.741Z,60.17
2022-12-18T02:51:52.059Z,71.30
2022-12-18T02:54:59.592Z,66.10
2022-12-18T02:57:52.133Z,58.57
2022-12-18T03:00:43.814Z,57.47
2022-12-18T03:03:40.483Z,62.07
2022-12-18T03:06:32.418Z,56.97
2022-12-18T03:09:24.040Z,64.53
2022-12-18T03:12:25.240Z,56.47
2022-12-18T03:18:10.684Z,75.10
2022-12-18T03:21:05.758Z,66.53
2022-12-18T03:23:55.799Z,56.53
2022-12-18T03:26:48.366Z,63.17
2022-12-18T03:29:41.301Z,61.23
2022-12-18T03:32:33.528Z,76.13
2022-12-18T03:35:26.807Z,64.60
2022-12-18T03:38:16.689Z,65.07
2022-12-18T03:41:13.279Z,67.87
2022-12-18T03:44:08.350Z,73.87
2022-12-18T03:47:02.330Z,78.03
2022-12-18T03:49:58.429Z,85.67
2022-12-18T03:52:51.954Z,78.87
2022-12-18T03:55:43.096Z,73.73
2022-12-18T04:01:25.227Z,65.70
2022-12-18T04:04:16.497Z,72.07
2022-12-18T04:07:06.517Z,78.30
2022-12-18T04:09:57.857Z,69.30
2022-12-18T04:12:47.804Z,67.47
2022-12-18T04:15:37.353Z,71.97
2022-12-18T04:18:25.688Z,71.00
2022-12-18T04:21:14.225Z,68.23
2022-12-18T04:24:02.613Z,73.27
2022-12-18T04:26:50.943Z,73.63
2022-12-18T04:29:40.658Z,64.20
2022-12-18T04:32:28.998Z,69.03
2022-12-18T04:35:17.451Z,72.57
2022-12-18T04:38:05.741Z,67.00
2022-12-18T04:40:54.498Z,68.47
2022-12-18T04:43:43.021Z,71.87
2022-12-18T04:46:33.204Z,66.83
2022-12-18T04:49:21.656Z,64.13
2022-12-18T04:52:09.985Z,70.03
2022-12-18T04:54:58.307Z,68.43
2022-12-18T04:57:46.711Z,73.03
2022-12-18T05:00:35.069Z,75.80
2022-12-18T05:03:24.945Z,67.97
2022-12-18T05:06:13.372Z,74.30
2022-12-18T05:09:01.770Z,73.00
2022-12-18T05:11:50.122Z,79.53
2022-12-18T05:14:38.535Z,72.97
2022-12-18T05:17:26.871Z,73.67
2022-12-18T05:20:16.612Z,63.97
2022-12-18T05:23:04.968Z,65.90
2022-12-18T05:25:54.535Z,67.70
2022-12-18T05:28:43.005Z,67.00
2022-12-18T05:31:35.953Z,70.97
2022-12-18T05:34:27.377Z,70.97
2022-12-18T05:37:17.981Z,71.67
2022-12-18T05:40:07.334Z,77.57
2022-12-18T05:42:55.647Z,65.47
2022-12-18T05:45:44.314Z,74.93
2022-12-18T05:48:32.687Z,71.97
2022-12-18T05:51:23.867Z,83.23
2022-12-18T05:57:01.736Z,74.73
2022-12-18T05:59:50.061Z,80.17
2022-12-18T06:02:38.509Z,80.47
2022-12-18T06:05:26.989Z,76.03
2022-12-18T06:08:15.908Z,84.70
2022-12-18T06:11:05.688Z,84.37
2022-12-18T06:13:58.595Z,74.40
2022-12-18T06:16:47.656Z,86.97
2022-12-18T06:19:36.063Z,83.20
2022-12-18T06:22:24.790Z,84.20
2022-12-18T06:25:13.335Z,89.37
2022-12-18T06:28:02.972Z,70.57
2022-12-18T06:30:52.051Z,86.50
2022-12-18T06:33:40.962Z,79.57
2022-12-18T06:36:29.509Z,74.23
2022-12-18T06:39:17.831Z,76.43
2022-12-18T06:42:06.499Z,78.07
2022-12-18T06:44:56.213Z,80.87
2022-12-18T06:47:44.645Z,81.37
2022-12-18T06:50:32.985Z,85.33
2022-12-18T06:53:21.338Z,79.27
2022-12-18T06:56:11.065Z,76.03
2022-12-18T06:58:59.583Z,88.90
2022-12-18T07:01:49.383Z,70.67
2022-12-18T07:04:38.014Z,77.07
2022-12-18T07:07:26.394Z,73.17
2022-12-18T07:10:14.783Z,69.50
2022-12-18T07:13:03.131Z,76.80
2022-12-18T07:15:51.833Z,74.03
2022-12-18T07:18:41.639Z,72.67
2022-12-18T07:21:29.934Z,72.77
2022-12-18T07:24:18.361Z,73.67
2022-12-18T07:27:06.727Z,70.93
2022-12-18T07:29:56.424Z,84.73
2022-12-18T07:32:44.801Z,78.93
2022-12-18T07:35:37.531Z,78.47
2022-12-18T07:38:25.864Z,81.57
2022-12-18T07:41:16.091Z,71.53
2022-12-18T07:44:04.636Z,79.25
2022-12-18T07:46:53.024Z,72.87
2022-12-18T07:49:41.342Z,69.47
2022-12-18T07:52:31.033Z,73.80
2022-12-18T07:55:19.625Z,71.87
2022-12-18T07:58:07.945Z,67.90
2022-12-18T08:00:56.361Z,74.00
2022-12-18T08:03:44.694Z,75.83
2022-12-18T08:06:33.076Z,71.40
2022-12-18T08:09:22.850Z,80.47
2022-12-18T08:12:11.238Z,79.37
2022-12-18T08:14:59.617Z,77.20
2022-12-18T08:17:47.962Z,70.83
2022-12-18T08:20:36.317Z,70.17
2022-12-18T08:23:27.593Z,76.10
2022-12-18T08:26:18.761Z,78.90
2022-12-18T08:29:07.619Z,68.68
2022-12-18T08:31:56.119Z,68.57
2022-12-18T08:34:44.493Z,72.70
2022-12-18T08:37:33.030Z,72.93
2022-12-18T08:40:21.625Z,66.03
2022-12-18T08:43:29.927Z,68.97
2022-12-18T08:46:19.185Z,64.00
2022-12-18T08:49:12.640Z,77.50
2022-12-18T08:52:01.187Z,66.37
2022-12-18T08:54:52.110Z,66.07
2022-12-18T08:57:40.416Z,69.93
2022-12-18T09:00:31.949Z,68.13
2022-12-18T09:03:23.616Z,70.27
2022-12-18T09:06:15.759Z,66.50
2022-12-18T09:09:05.449Z,65.40
2022-12-18T09:11:54.634Z,61.07
2022-12-18T09:14:42.979Z,60.30
2022-12-18T09:17:35.484Z,62.73
2022-12-18T09:20:25.100Z,63.43
2022-12-18T09:23:14.278Z,62.70
2022-12-18T09:26:03.164Z,63.87
2022-12-18T09:28:54.322Z,59.73
2022-12-18T09:34:41.676Z,59.00
2022-12-18T09:37:32.144Z,63.43
2022-12-18T09:40:23.293Z,60.67
2022-12-18T09:46:08.709Z,58.53
2022-12-18T09:49:01.054Z,54.23
2022-12-18T09:51:56.207Z,60.73
2022-12-18T09:54:47.646Z,56.40
2022-12-18T09:57:41.229Z,62.30
2022-12-18T10:00:29.699Z,56.27
2022-12-18T10:03:18.506Z,59.60
2022-12-18T10:06:15.003Z,61.03
2022-12-18T10:09:10.384Z,65.67
2022-12-18T10:12:09.595Z,66.27
2022-12-18T10:15:05.647Z,58.03
2022-12-18T10:17:59.616Z,57.30
2022-12-18T10:20:51.348Z,56.00
2022-12-18T10:23:48.372Z,59.77
2022-12-18T10:26:38.776Z,55.67
2022-12-18T10:29:27.961Z,41.57
2022-12-18T10:32:19.061Z,57.67
2022-12-18T10:35:17.579Z,60.60
2022-12-18T10:38:08.989Z,52.10
2022-12-18T10:40:59.219Z,56.43
2022-12-18T10:44:11.896Z,58.90
2022-12-18T10:47:11.811Z,61.43
2022-12-18T10:50:00.783Z,55.47
2022-12-18T10:52:57.600Z,55.40
2022-12-18T10:55:52.327Z,56.23
2022-12-18T10:58:41.708Z,54.87
2022-12-18T11:01:47.786Z,55.30
2022-12-18T11:04:36.382Z,55.80
2022-12-18T11:07:24.703Z,53.27
2022-12-18T11:10:18.516Z,49.30
2022-12-18T11:13:15.009Z,54.87
2022-12-18T11:16:03.437Z,49.73
2022-12-18T11:18:53.383Z,54.07
2022-12-18T11:21:43.279Z,52.93
2022-12-18T11:24:33.455Z,53.00
2022-12-18T11:27:21.766Z,41.78
2022-12-18T11:30:12.501Z,53.77
2022-12-18T11:33:08.351Z,46.92
2022-12-18T11:36:03.732Z,49.53
2022-12-18T11:38:55.899Z,47.83
2022-12-18T11:42:08.656Z,48.27
2022-12-18T11:45:01.598Z,48.47
2022-12-18T11:47:56.415Z,44.77
2022-12-18T11:50:51.551Z,45.83
2022-12-18T11:53:41.635Z,43.60
2022-12-18T11:56:40.819Z,44.30
2022-12-18T11:59:40.923Z,44.67
2022-12-18T12:02:50.333Z,46.10
2022-12-18T12:05:53.340Z,46.17
2022-12-18T12:08:54.737Z,47.97
2022-12-18T12:11:57.184Z,39.07
2022-12-18T12:14:57.131Z,44.00
2022-12-18T12:17:52.314Z,30.63
2022-12-18T12:20:51.573Z,42.47
2022-12-18T12:23:50.057Z,42.37
2022-12-18T12:26:45.198Z,39.97
2022-12-18T12:29:46.312Z,49.33
2022-12-18T12:32:50.663Z,45.87
2022-12-18T12:35:49.292Z,44.07
2022-12-18T12:38:49.772Z,44.40
2022-12-18T12:42:00.977Z,42.97
2022-12-18T12:44:56.280Z,45.50
2022-12-18T12:47:48.476Z,47.80
2022-12-18T12:50:39.498Z,42.17
2022-12-18T12:56:21.508Z,42.70
2022-12-18T12:59:21.267Z,43.15
2022-12-18T13:02:20.329Z,48.23
2022-12-18T13:05:20.984Z,43.22
2022-12-18T13:08:12.655Z,48.40
2022-12-18T13:11:15.525Z,44.35
2022-12-18T13:14:05.004Z,47.63
2022-12-18T13:17:19.289Z,46.93
2022-12-18T13:20:15.620Z,42.83
2022-12-18T13:23:27.736Z,43.87
2022-12-18T13:26:34.191Z,39.93
2022-12-18T13:29:43.236Z,44.43
2022-12-18T13:32:32.899Z,47.83
2022-12-18T13:35:41.638Z,42.67
2022-12-18T13:38:36.472Z,42.40
2022-12-18T13:41:26.925Z,39.20
2022-12-18T13:44:24.514Z,33.08
2022-12-18T13:47:33.262Z,42.23
2022-12-18T13:50:29.697Z,41.73
2022-12-18T13:53:25.769Z,37.93
2022-12-18T13:56:18.368Z,45.43
2022-12-18T13:59:24.879Z,38.23
2022-12-18T14:02:17.201Z,37.97
2022-12-18T14:05:06.645Z,40.63
2022-12-18T14:07:57.782Z,39.87
2022-12-18T14:13:39.673Z,47.05
2022-12-18T14:16:29.141Z,44.53
2022-12-18T14:19:20.054Z,50.00
2022-12-18T14:22:16.722Z,43.88
2022-12-18T14:25:17.846Z,53.07
2022-12-18T14:28:16.495Z,44.42
2022-12-18T14:31:04.862Z,47.10
2022-12-18T14:33:53.626Z,43.30
2022-12-18T14:36:42.281Z,50.27
2022-12-18T14:39:30.542Z,45.90
2022-12-18T14:42:20.206Z,44.83
2022-12-18T14:45:41.651Z,50.97
2022-12-18T14:48:40.481Z,52.70
2022-12-18T14:51:30.823Z,48.20
2022-12-18T14:54:21.022Z,52.55
2022-12-18T14:57:27.434Z,45.10
2022-12-18T15:00:19.696Z,53.77
2022-12-18T15:03:10.568Z,51.50
2022-12-18T15:06:16.810Z,46.85
2022-12-18T15:09:08.000Z,50.60
2022-12-18T15:14:47.473Z,51.30
2022-12-18T15:17:35.803Z,53.50
2022-12-18T15:20:24.130Z,48.27
2022-12-18T15:23:17.168Z,57.37
2022-12-18T15:26:07.608Z,60.57
2022-12-18T15:28:59.553Z,56.30
2022-12-18T15:32:01.182Z,55.73
2022-12-18T15:34:49.500Z,52.97
2022-12-18T15:37:37.809Z,59.53
2022-12-18T15:40:26.384Z,55.53
2022-12-18T15:43:32.123Z,58.27
2022-12-18T15:46:21.834Z,51.30
2022-12-18T15:49:11.831Z,66.23
2022-12-18T15:52:02.054Z,59.83
2022-12-18T15:55:07.815Z,62.40
2022-12-18T15:57:56.083Z,57.17
2022-12-18T16:00:44.334Z,57.83
2022-12-18T16:03:35.145Z,52.03
2022-12-18T16:06:25.034Z,64.80
2022-12-18T16:09:13.426Z,68.40
2022-12-18T16:12:03.075Z,62.80
2022-12-18T16:14:51.469Z,60.87
2022-12-18T16:17:39.945Z,59.43
2022-12-18T16:20:28.222Z,65.47
2022-12-18T16:23:17.761Z,63.33
2022-12-18T16:26:06.115Z,59.50
2022-12-18T16:28:54.804Z,61.17
2022-12-18T16:31:44.634Z,65.90
2022-12-18T16:34:36.163Z,58.87
2022-12-18T16:37:24.511Z,64.33
2022-12-18T16:40:16.959Z,53.60
2022-12-18T16:43:05.198Z,57.47
2022-12-18T16:45:58.051Z,58.90
2022-12-18T16:48:46.391Z,54.97
2022-12-18T16:51:36.287Z,53.93
2022-12-18T16:54:25.020Z,59.20
2022-12-18T16:57:16.576Z,66.57
2022-12-18T17:00:06.323Z,62.20
2022-12-18T17:02:54.815Z,54.23
2022-12-18T17:05:43.146Z,60.60
2022-12-18T17:08:31.495Z,90.17
2022-12-18T17:11:19.732Z,58.90
2022-12-18T17:14:11.227Z,62.97
2022-12-18T17:17:20.457Z,57.00
2022-12-18T17:20:09.305Z,58.83
2022-12-18T17:22:57.574Z,51.07
2022-12-18T17:25:46.779Z,60.60
2022-12-18T17:28:36.014Z,56.23
2022-12-18T17:31:27.452Z,57.50
2022-12-18T17:34:16.313Z,65.43
2022-12-18T17:37:04.583Z,60.23
2022-12-18T17:39:53.809Z,63.30
2022-12-18T17:42:42.045Z,57.47
2022-12-18T17:45:30.341Z,57.73
2022-12-18T17:48:20.146Z,57.63
2022-12-18T17:51:11.860Z,60.10
2022-12-18T17:54:01.455Z,62.20
2022-12-18T17:56:49.775Z,62.87
2022-12-18T17:59:38.049Z,65.10
2022-12-18T18:02:26.671Z,63.73
2022-12-18T18:05:18.948Z,69.87
2022-12-18T18:08:07.921Z,71.13
2022-12-18T18:11:17.013Z,64.53
2022-12-18T18:14:05.858Z,79.67
2022-12-18T18:16:54.155Z,63.07
2022-12-18T18:19:44.231Z,60.00
2022-12-18T18:22:42.443Z,61.23
2022-12-18T18:25:30.735Z,60.00
2022-12-18T18:28:18.967Z,63.20
2022-12-18T18:31:08.800Z,65.83
2022-12-18T18:34:02.083Z,66.23
2022-12-18T18:36:51.045Z,66.77
2022-12-18T18:39:40.945Z,65.37
2022-12-18T18:42:30.551Z,63.60
2022-12-18T18:45:18.882Z,63.57
2022-12-18T18:48:07.487Z,58.77
2022-12-18T18:50:58.774Z,64.70
2022-12-18T18:59:47.087Z,61.97
2022-12-18T19:02:35.425Z,63.33
2022-12-18T19:05:23.735Z,69.10
2022-12-18T19:08:12.030Z,63.40
2022-12-18T19:11:02.377Z,63.13
2022-12-18T19:13:51.039Z,65.65
2022-12-18T19:16:40.145Z,63.03
2022-12-18T19:19:28.507Z,64.60
2022-12-18T19:22:16.862Z,66.03
2022-12-18T19:25:05.599Z,66.60
2022-12-18T19:27:53.836Z,66.33
2022-12-18T19:30:43.551Z,66.20
2022-12-18T19:33:43.033Z,58.17
2022-12-18T19:36:34.969Z,66.40
2022-12-18T19:39:23.379Z,62.17
2022-12-18T19:42:11.987Z,63.10
2022-12-18T19:45:01.694Z,63.87
2022-12-18T19:47:51.494Z,60.47
2022-12-18T19:50:41.884Z,64.77
2022-12-18T19:53:30.233Z,49.78
2022-12-18T19:56:20.515Z,58.83
2022-12-18T19:59:09.047Z,41.00
2022-12-18T20:02:02.307Z,62.37
2022-12-18T20:04:54.991Z,57.33
2022-12-18T20:07:43.506Z,62.60
2022-12-18T20:10:35.294Z,57.67
2022-12-18T20:13:23.634Z,59.33
2022-12-18T20:16:22.601Z,56.20
2022-12-18T20:19:14.556Z,54.33
2022-12-18T20:22:05.487Z,60.23
2022-12-18T20:24:56.669Z,60.27
2022-12-18T20:27:52.142Z,61.00
2022-12-18T20:30:40.422Z,56.53
2022-12-18T20:33:30.273Z,68.03
2022-12-18T20:36:23.489Z,58.50
2022-12-18T20:39:14.417Z,55.10
2022-12-18T20:42:03.786Z,55.67
2022-12-18T20:44:54.815Z,54.97
2022-12-18T20:47:43.657Z,59.58
2022-12-18T20:50:32.889Z,50.37
2022-12-18T20:53:24.246Z,60.20
2022-12-18T20:59:10.686Z,52.67
2022-12-18T21:01:59.142Z,54.27
2022-12-18T21:04:47.866Z,49.33
2022-12-18T21:07:36.104Z,52.90
2022-12-18T21:10:24.453Z,56.60
2022-12-18T21:13:14.362Z,55.87
2022-12-18T21:16:02.603Z,55.50
2022-12-18T21:18:51.699Z,49.77
2022-12-18T21:21:43.684Z,48.80
2022-12-18T21:24:32.545Z,50.53
2022-12-18T21:27:21.336Z,51.23
2022-12-18T21:30:11.690Z,54.73
2022-12-18T21:32:59.991Z,35.58
2022-12-18T21:35:48.271Z,54.33
2022-12-18T21:38:36.986Z,51.43
2022-12-18T21:41:46.599Z,50.27
2022-12-18T21:44:41.475Z,54.33
2022-12-18T21:47:31.397Z,50.37
2022-12-18T21:50:19.757Z,51.70
2022-12-18T21:53:07.998Z,42.50
2022-12-18T21:55:59.689Z,50.50
2022-12-18T21:58:57.339Z,48.33
2022-12-18T22:01:46.141Z,46.20
2022-12-18T22:04:35.951Z,46.20
2022-12-18T22:07:24.626Z,46.70
2022-12-18T22:10:12.870Z,50.77
2022-12-18T22:13:01.148Z,46.60
2022-12-18T22:15:51.380Z,38.87
2022-12-18T22:18:39.717Z,43.07
2022-12-18T22:21:31.038Z,42.03
2022-12-18T22:24:21.463Z,39.00
2022-12-18T22:27:10.307Z,47.22
2022-12-18T22:30:06.652Z,46.77
2022-12-18T22:32:55.012Z,42.63
2022-12-18T22:35:43.501Z,39.13
2022-12-18T22:38:33.328Z,37.87
2022-12-18T22:41:21.563Z,42.00
2022-12-18T22:44:09.942Z,39.80
2022-12-18T22:47:06.640Z,42.28
2022-12-18T22:49:55.489Z,38.97
2022-12-18T22:52:43.752Z,40.60
2022-12-18T22:55:33.424Z,38.40
2022-12-18T22:58:21.604Z,38.53
2022-12-18T23:01:20.433Z,47.13
2022-12-18T23:04:09.814Z,40.27
2022-12-18T23:06:58.039Z,38.50
2022-12-18T23:09:46.295Z,36.43
2022-12-18T23:12:38.462Z,22.63
2022-12-18T23:15:27.776Z,35.33
2022-12-18T23:18:17.164Z,38.33
2022-12-18T23:21:06.919Z,37.00
2022-12-18T23:23:55.317Z,31.50
2022-12-18T23:26:43.608Z,33.13
2022-12-18T23:29:33.343Z,32.37
2022-12-18T23:32:21.581Z,33.40
2022-12-18T23:35:10.054Z,33.40
2022-12-18T23:38:00.638Z,34.17
2022-12-18T23:40:48.970Z,34.77
2022-12-18T23:43:41.762Z,35.57
2022-12-18T23:46:36.048Z,35.00
2022-12-18T23:49:24.436Z,38.50
2022-12-18T23:52:13.775Z,33.53
2022-12-18T23:55:02.248Z,37.07
2022-12-18T23:57:50.463Z,34.33
